createdAt,value
2022-10-23T00:02:42.399Z,19.93
2022-10-23T00:05:45.457Z,19.92
2022-10-23T00:08:48.584Z,19.75
2022-10-23T00:11:51.689Z,18.90
2022-10-23T00:14:54.646Z,19.43
2022-10-23T00:17:57.533Z,19.07
2022-10-23T00:21:00.642Z,18.73
2022-10-23T00:24:03.684Z,19.08
2022-10-23T00:27:06.602Z,18.38
2022-10-23T00:30:09.880Z,19.27
2022-10-23T00:33:12.786Z,18.10
2022-10-23T00:36:16.708Z,19.10
2022-10-23T00:39:20.023Z,20.63
2022-10-23T00:42:24.029Z,20.08
2022-10-23T00:45:28.037Z,19.57
2022-10-23T00:48:30.936Z,19.10
2022-10-23T00:51:41.879Z,18.92
2022-10-23T00:54:45.592Z,18.63
2022-10-23T00:57:49.291Z,18.50
2022-10-23T01:00:54.066Z,17.77
2022-10-23T01:03:58.432Z,18.57
2022-10-23T01:07:13.626Z,19.90
2022-10-23T01:10:20.745Z,18.67
2022-10-23T01:13:46.302Z,20.35
2022-10-23T01:16:59.444Z,19.73
2022-10-23T01:20:23.309Z,20.57
2022-10-23T01:23:36.472Z,20.02
2022-10-23T01:27:09.935Z,20.13
2022-10-23T01:30:16.530Z,21.10
2022-10-23T01:33:33.256Z,20.57
2022-10-23T01:36:36.680Z,21.47
2022-10-23T01:39:42.043Z,21.27
2022-10-23T01:42:50.683Z,21.10
2022-10-23T01:46:05.037Z,21.73
2022-10-23T01:49:11.375Z,19.30
2022-10-23T01:52:14.759Z,18.80
2022-10-23T01:55:20.569Z,19.23
2022-10-23T01:58:24.264Z,19.90
2022-10-23T02:01:27.807Z,21.55
2022-10-23T02:04:42.473Z,20.77
2022-10-23T02:07:45.588Z,19.97
2022-10-23T02:11:07.693Z,21.15
2022-10-23T02:14:43.199Z,20.60
2022-10-23T02:17:59.009Z,20.27
2022-10-23T02:21:10.087Z,19.97
2022-10-23T02:24:14.150Z,20.10
2022-10-23T02:27:42.498Z,21.08
2022-10-23T02:30:47.412Z,19.70
2022-10-23T02:33:50.429Z,19.17
2022-10-23T02:36:53.388Z,19.83
2022-10-23T02:39:57.923Z,20.40
2022-10-23T02:43:08.295Z,20.27
2022-10-23T02:46:18.397Z,19.73
2022-10-23T02:49:43.223Z,19.45
2022-10-23T02:53:32.853Z,20.30
2022-10-23T02:56:54.920Z,19.00
2022-10-23T03:00:11.572Z,18.98
2022-10-23T03:03:19.639Z,18.92
2022-10-23T03:06:23.452Z,17.63
2022-10-23T03:09:27.173Z,18.10
2022-10-23T03:12:30.161Z,17.60
2022-10-23T03:15:33.123Z,18.48
2022-10-23T03:18:36.144Z,16.38
2022-10-23T03:21:39.616Z,16.85
2022-10-23T03:24:44.418Z,16.70
2022-10-23T03:27:47.365Z,18.30
2022-10-23T03:30:52.518Z,17.13
2022-10-23T03:33:55.433Z,17.52
2022-10-23T03:36:58.368Z,18.58
2022-10-23T03:40:01.292Z,19.10
2022-10-23T03:43:07.102Z,19.33
2022-10-23T03:46:12.820Z,19.67
2022-10-23T03:49:15.840Z,20.95
2022-10-23T03:52:19.905Z,19.55
2022-10-23T03:55:22.912Z,19.20
2022-10-23T03:58:25.801Z,19.70
2022-10-23T04:01:28.869Z,20.23
2022-10-23T04:04:31.929Z,20.98
2022-10-23T04:07:36.257Z,21.98
2022-10-23T04:10:39.506Z,20.30
2022-10-23T04:13:42.403Z,22.03
2022-10-23T04:16:45.335Z,21.40
2022-10-23T04:19:48.253Z,20.70
2022-10-23T04:22:51.132Z,21.52
2022-10-23T04:25:57.452Z,21.70
2022-10-23T04:29:01.350Z,21.73
2022-10-23T04:32:06.792Z,20.15
2022-10-23T04:35:09.845Z,22.55
2022-10-23T04:38:12.908Z,25.75
2022-10-23T04:41:15.851Z,31.73
2022-10-23T04:44:18.789Z,26.37
2022-10-23T04:47:21.755Z,24.33
2022-10-23T04:50:32.900Z,23.45
2022-10-23T04:54:01.717Z,24.13
2022-10-23T04:57:30.616Z,23.63
2022-10-23T05:00:45.739Z,26.13
2022-10-23T05:03:56.747Z,25.40
2022-10-23T05:07:00.312Z,24.42
2022-10-23T05:10:19.081Z,22.55
2022-10-23T05:13:45.066Z,25.13
2022-10-23T05:17:08.786Z,23.53
2022-10-23T05:20:16.104Z,29.05
2022-10-23T05:23:19.514Z,40.17
2022-10-23T05:26:32.067Z,42.33
2022-10-23T05:29:40.159Z,63.43
2022-10-23T05:32:43.391Z,30.83
2022-10-23T05:35:46.545Z,29.42
2022-10-23T05:38:51.918Z,33.40
2022-10-23T05:41:56.849Z,34.83
2022-10-23T05:45:01.229Z,33.43
2022-10-23T05:48:33.888Z,29.83
2022-10-23T05:51:56.122Z,28.48
2022-10-23T05:55:21.573Z,27.48
2022-10-23T05:58:24.494Z,27.70
2022-10-23T06:01:45.830Z,27.73
2022-10-23T06:04:53.366Z,29.73
2022-10-23T06:08:09.907Z,25.35
2022-10-23T06:11:14.348Z,24.65
2022-10-23T06:14:21.840Z,25.65
2022-10-23T06:17:27.337Z,25.40
2022-10-23T06:20:30.444Z,25.37
2022-10-23T06:23:43.926Z,25.17
2022-10-23T06:27:07.266Z,24.17
2022-10-23T06:30:20.723Z,24.85
2022-10-23T06:33:25.480Z,24.90
2022-10-23T06:36:28.708Z,21.60
2022-10-23T06:39:45.223Z,21.63
2022-10-23T06:42:51.026Z,22.67
2022-10-23T06:46:22.828Z,26.10
2022-10-23T06:49:48.805Z,24.33
2022-10-23T06:52:51.889Z,23.47
2022-10-23T06:56:02.406Z,21.10
2022-10-23T06:59:07.656Z,22.83
2022-10-23T07:02:10.822Z,22.30
2022-10-23T07:05:14.667Z,20.63
2022-10-23T07:08:18.966Z,19.93
2022-10-23T07:11:25.193Z,19.83
2022-10-23T07:14:32.065Z,19.98
2022-10-23T07:17:36.609Z,20.40
2022-10-23T07:20:40.340Z,20.33
2022-10-23T07:23:43.444Z,19.87
2022-10-23T07:26:47.010Z,19.58
2022-10-23T07:29:51.325Z,19.95
2022-10-23T07:32:54.344Z,17.23
2022-10-23T07:36:15.791Z,18.80
2022-10-23T07:39:19.727Z,19.53
2022-10-23T07:42:27.648Z,18.92
2022-10-23T07:45:30.541Z,18.25
2022-10-23T07:48:38.454Z,18.00
2022-10-23T07:51:41.551Z,18.83
2022-10-23T07:54:45.149Z,19.33
2022-10-23T07:57:55.599Z,19.02
2022-10-23T08:01:40.721Z,19.50
2022-10-23T08:04:44.056Z,18.98
2022-10-23T08:08:23.323Z,18.63
2022-10-23T08:11:30.937Z,19.60
2022-10-23T08:14:34.284Z,18.85
2022-10-23T08:17:39.194Z,18.52
2022-10-23T08:20:51.110Z,19.35
2022-10-23T08:23:58.750Z,19.87
2022-10-23T08:27:02.256Z,20.43
2022-10-23T08:30:07.159Z,22.00
2022-10-23T08:33:10.199Z,20.48
2022-10-23T08:36:21.702Z,19.90
2022-10-23T08:39:24.941Z,20.13
2022-10-23T08:43:11.245Z,18.10
2022-10-23T08:46:23.978Z,18.25
2022-10-23T08:49:55.818Z,18.05
2022-10-23T08:53:14.571Z,18.38
2022-10-23T08:56:30.899Z,16.30
2022-10-23T09:00:07.184Z,16.93
2022-10-23T09:03:10.463Z,17.15
2022-10-23T09:06:20.302Z,17.30
2022-10-23T09:09:32.044Z,17.95
2022-10-23T09:12:34.937Z,18.07
2022-10-23T09:15:47.797Z,18.23
2022-10-23T09:18:50.801Z,18.15
2022-10-23T09:21:53.978Z,16.10
2022-10-23T09:24:56.999Z,16.92
2022-10-23T09:28:01.614Z,17.53
2022-10-23T09:31:09.247Z,16.87
2022-10-23T09:34:21.502Z,16.85
2022-10-23T09:37:28.935Z,16.17
2022-10-23T09:40:42.271Z,15.60
2022-10-23T09:43:45.334Z,16.97
2022-10-23T09:49:57.790Z,16.50
2022-10-23T09:53:00.701Z,16.08
2022-10-23T09:56:28.732Z,15.45
2022-10-23T09:59:31.835Z,16.53
2022-10-23T10:02:35.981Z,15.50
2022-10-23T10:05:42.295Z,14.65
2022-10-23T10:09:02.518Z,14.68
2022-10-23T10:12:22.867Z,14.95
2022-10-23T10:15:47.504Z,15.10
2022-10-23T10:19:02.998Z,14.73
2022-10-23T10:22:26.808Z,13.45
2022-10-23T10:25:53.524Z,14.27
2022-10-23T10:29:36.382Z,12.88
2022-10-23T10:32:58.946Z,12.77
2022-10-23T10:36:11.170Z,13.17
2022-10-23T10:39:32.255Z,12.80
2022-10-23T10:42:50.697Z,13.73
2022-10-23T10:46:11.733Z,12.13
2022-10-23T10:49:22.686Z,11.63
2022-10-23T10:52:52.339Z,10.90
2022-10-23T10:55:55.759Z,10.07
2022-10-23T10:59:00.412Z,10.85
2022-10-23T11:02:29.011Z,10.77
2022-10-23T11:05:37.229Z,10.43
2022-10-23T11:08:56.147Z,11.63
2022-10-23T11:12:00.733Z,11.20
2022-10-23T11:15:03.732Z,10.75
2022-10-23T11:18:12.194Z,10.73
2022-10-23T11:21:27.216Z,10.50
2022-10-23T11:25:00.633Z,10.03
2022-10-23T11:28:18.748Z,10.35
2022-10-23T11:31:50.589Z,10.05
2022-10-23T11:34:56.590Z,9.13
2022-10-23T11:38:08.447Z,9.63
2022-10-23T11:41:27.036Z,9.23
2022-10-23T11:44:43.121Z,9.05
2022-10-23T11:47:46.019Z,8.82
2022-10-23T11:50:49.469Z,9.90
2022-10-23T11:53:52.370Z,9.00
2022-10-23T11:57:08.096Z,10.23
2022-10-23T12:00:21.709Z,11.52
2022-10-23T12:03:40.881Z,10.23
2022-10-23T12:06:49.248Z,10.63
2022-10-23T12:09:57.447Z,9.83
2022-10-23T12:13:05.344Z,10.93
2022-10-23T12:16:08.315Z,10.00
2022-10-23T12:19:18.620Z,10.48
2022-10-23T12:22:22.329Z,10.82
2022-10-23T12:25:42.770Z,10.00
2022-10-23T12:29:00.787Z,10.23
2022-10-23T12:32:28.663Z,10.90
2022-10-23T12:36:01.030Z,10.32
2022-10-23T12:39:23.872Z,8.95
2022-10-23T12:42:28.004Z,8.40
2022-10-23T12:45:37.948Z,8.37
2022-10-23T12:48:48.595Z,8.25
2022-10-23T12:51:59.823Z,8.40
2022-10-23T12:55:13.530Z,9.98
2022-10-23T12:58:35.281Z,8.20
2022-10-23T13:01:43.281Z,9.03
2022-10-23T13:04:46.667Z,8.07
2022-10-23T13:07:52.165Z,9.10
2022-10-23T13:11:03.277Z,7.63
2022-10-23T13:14:13.474Z,8.47
2022-10-23T13:17:16.409Z,7.90
2022-10-23T13:20:21.214Z,7.78
2022-10-23T13:23:36.486Z,9.85
2022-10-23T13:26:45.266Z,9.45
2022-10-23T13:29:48.363Z,9.13
2022-10-23T13:32:51.274Z,9.93
2022-10-23T13:36:01.826Z,10.10
2022-10-23T13:39:10.747Z,8.68
2022-10-23T13:42:14.274Z,8.43
2022-10-23T13:45:21.124Z,9.00
2022-10-23T13:48:24.046Z,8.40
2022-10-23T13:51:28.525Z,8.50
2022-10-23T13:54:31.838Z,9.00
2022-10-23T13:57:34.748Z,9.18
2022-10-23T14:00:37.928Z,9.50
2022-10-23T14:03:40.815Z,9.97
2022-10-23T14:06:43.977Z,10.15
2022-10-23T14:09:47.434Z,9.93
2022-10-23T14:12:54.815Z,10.63
2022-10-23T14:15:57.845Z,9.97
2022-10-23T14:19:00.770Z,10.97
2022-10-23T14:22:03.654Z,10.73
2022-10-23T14:25:06.800Z,11.02
2022-10-23T14:28:09.686Z,10.40
2022-10-23T14:31:14.401Z,10.57
2022-10-23T14:34:17.315Z,11.10
2022-10-23T14:37:20.741Z,10.38
2022-10-23T14:40:23.652Z,10.13
2022-10-23T14:43:26.551Z,10.10
2022-10-23T14:46:29.560Z,9.97
2022-10-23T14:49:32.484Z,10.73
2022-10-23T14:52:35.404Z,10.00
2022-10-23T14:55:38.305Z,8.85
2022-10-23T14:58:42.531Z,9.18
2022-10-23T15:01:48.203Z,10.20
2022-10-23T15:04:51.531Z,10.13
2022-10-23T15:07:56.335Z,10.50
2022-10-23T15:11:03.120Z,10.73
2022-10-23T15:14:06.630Z,15.90
2022-10-23T15:17:14.570Z,14.23
2022-10-23T15:20:18.753Z,9.40
2022-10-23T15:23:21.667Z,10.23
2022-10-23T15:26:25.586Z,10.05
2022-10-23T15:29:28.550Z,10.73
2022-10-23T15:32:31.480Z,9.83
2022-10-23T15:35:34.363Z,11.60
2022-10-23T15:38:37.276Z,28.13
2022-10-23T15:41:40.793Z,26.83
2022-10-23T15:44:43.668Z,15.57
2022-10-23T15:47:46.700Z,12.90
2022-10-23T15:50:49.928Z,12.70
2022-10-23T15:53:52.922Z,15.25
2022-10-23T15:56:55.858Z,12.90
2022-10-23T15:59:58.753Z,18.80
2022-10-23T16:03:01.886Z,17.10
2022-10-23T16:06:09.003Z,20.67
2022-10-23T16:09:11.991Z,11.73
2022-10-23T16:12:14.944Z,11.10
2022-10-23T16:15:17.910Z,9.45
2022-10-23T16:18:21.814Z,21.90
2022-10-23T16:21:26.387Z,14.90
2022-10-23T16:24:29.859Z,12.48
2022-10-23T16:27:32.764Z,12.65
2022-10-23T16:30:43.596Z,12.32
2022-10-23T16:33:46.945Z,11.70
2022-10-23T16:36:49.977Z,12.00
2022-10-23T16:40:16.105Z,17.05
2022-10-23T16:43:37.843Z,44.55
2022-10-23T16:46:48.916Z,35.60
2022-10-23T16:49:51.849Z,26.20
2022-10-23T16:52:55.814Z,22.70
2022-10-23T16:55:59.049Z,20.08
2022-10-23T16:59:02.113Z,14.25
2022-10-23T17:02:05.252Z,14.23
2022-10-23T17:05:08.405Z,14.27
2022-10-23T17:08:11.306Z,16.67
2022-10-23T17:11:22.061Z,13.80
2022-10-23T17:14:29.036Z,14.13
2022-10-23T17:17:31.926Z,16.00
2022-10-23T17:20:34.870Z,21.53
2022-10-23T17:23:37.781Z,21.27
2022-10-23T17:26:40.734Z,24.77
2022-10-23T17:29:43.638Z,12.23
2022-10-23T17:32:46.933Z,22.02
2022-10-23T17:35:50.510Z,11.83
2022-10-23T17:38:53.560Z,11.53
2022-10-23T17:41:56.589Z,9.23
2022-10-23T17:44:59.541Z,8.30
2022-10-23T17:48:02.530Z,9.07
2022-10-23T17:51:22.114Z,8.97
2022-10-23T17:54:26.638Z,7.53
2022-10-23T17:57:29.536Z,7.50
2022-10-23T18:00:32.519Z,6.88
2022-10-23T18:03:35.620Z,6.70
2022-10-23T18:06:43.096Z,8.80
2022-10-23T18:09:45.989Z,6.50
2022-10-23T18:12:48.925Z,6.95
2022-10-23T18:15:51.827Z,6.13
2022-10-23T18:18:55.039Z,7.13
2022-10-23T18:21:58.056Z,6.93
2022-10-23T18:25:01.277Z,6.10
2022-10-23T18:28:04.816Z,6.03
2022-10-23T18:31:09.887Z,5.40
2022-10-23T18:34:18.425Z,5.40
2022-10-23T18:37:21.351Z,5.20
2022-10-23T18:40:27.113Z,4.20
2022-10-23T18:43:43.397Z,5.40
2022-10-23T18:46:47.348Z,6.22
2022-10-23T18:49:50.232Z,5.60
2022-10-23T18:52:53.534Z,5.40
2022-10-23T18:55:56.482Z,5.83
2022-10-23T18:59:00.396Z,4.72
2022-10-23T19:02:03.435Z,4.53
2022-10-23T19:05:07.293Z,5.03
2022-10-23T19:08:10.377Z,4.90
2022-10-23T19:11:14.212Z,5.17
2022-10-23T19:14:17.140Z,5.07
2022-10-23T19:17:22.657Z,5.30
2022-10-23T19:20:25.601Z,5.30
2022-10-23T19:23:30.148Z,5.53
2022-10-23T19:26:33.691Z,5.37
2022-10-23T19:29:39.148Z,5.47
2022-10-23T19:32:42.950Z,5.30
2022-10-23T19:35:46.046Z,5.95
2022-10-23T19:38:48.933Z,5.87
2022-10-23T19:41:52.036Z,6.07
2022-10-23T19:44:54.960Z,6.35
2022-10-23T19:47:57.849Z,6.68
2022-10-23T19:51:00.777Z,6.13
2022-10-23T19:54:04.013Z,6.13
2022-10-23T19:57:06.932Z,9.50
2022-10-23T20:00:10.440Z,7.65
2022-10-23T20:03:13.316Z,6.82
2022-10-23T20:06:18.787Z,7.28
2022-10-23T20:09:21.902Z,6.00
2022-10-23T20:12:24.906Z,6.90
2022-10-23T20:15:27.779Z,7.68
2022-10-23T20:18:30.733Z,8.90
2022-10-23T20:21:36.112Z,8.35
2022-10-23T20:24:42.216Z,8.23
2022-10-23T20:27:45.106Z,7.13
2022-10-23T20:30:47.992Z,7.70
2022-10-23T20:33:51.082Z,8.52
2022-10-23T20:36:54.245Z,8.10
2022-10-23T20:39:57.138Z,7.80
2022-10-23T20:43:00.358Z,7.60
2022-10-23T20:46:06.966Z,8.20
2022-10-23T20:49:09.978Z,8.68
2022-10-23T20:52:12.862Z,8.50
2022-10-23T20:55:15.771Z,8.67
2022-10-23T20:58:18.646Z,8.87
2022-10-23T21:01:21.694Z,8.88
2022-10-23T21:04:27.449Z,8.40
2022-10-23T21:07:30.344Z,8.05
2022-10-23T21:10:33.238Z,8.63
2022-10-23T21:13:36.351Z,8.03
2022-10-23T21:16:40.817Z,8.75
2022-10-23T21:19:43.841Z,8.63
2022-10-23T21:22:46.812Z,8.52
2022-10-23T21:25:49.770Z,9.23
2022-10-23T21:28:56.377Z,9.47
2022-10-23T21:32:09.741Z,9.70
2022-10-23T21:35:12.627Z,10.02
2022-10-23T21:38:15.511Z,10.00
2022-10-23T21:41:20.907Z,10.37
2022-10-23T21:44:23.851Z,9.87
2022-10-23T21:47:26.815Z,10.80
2022-10-23T21:50:29.732Z,9.63
2022-10-23T21:53:32.743Z,9.45
2022-10-23T21:56:39.670Z,9.93
2022-10-23T21:59:42.625Z,10.70
2022-10-23T22:02:45.973Z,9.20
2022-10-23T22:05:49.629Z,9.90
2022-10-23T22:08:52.925Z,15.15
2022-10-23T22:11:55.979Z,11.00
2022-10-23T22:14:58.879Z,9.73
2022-10-23T22:18:01.834Z,10.80
2022-10-23T22:21:06.538Z,10.02
2022-10-23T22:24:09.619Z,10.32
2022-10-23T22:27:12.506Z,11.17
2022-10-23T22:30:15.509Z,10.73
2022-10-23T22:33:18.461Z,11.48
2022-10-23T22:36:21.558Z,10.77
2022-10-23T22:39:24.567Z,11.40
2022-10-23T22:42:27.500Z,11.03
2022-10-23T22:45:30.389Z,10.73
2022-10-23T22:48:33.716Z,11.00
2022-10-23T22:51:36.739Z,11.32
2022-10-23T22:54:39.657Z,11.23
2022-10-23T22:57:42.862Z,11.60
2022-10-23T23:00:46.019Z,10.57
2022-10-23T23:03:49.081Z,12.35
2022-10-23T23:06:51.999Z,11.18
2022-10-23T23:09:54.962Z,11.98
2022-10-23T23:12:57.864Z,11.80
2022-10-23T23:16:00.822Z,12.40
2022-10-23T23:19:04.161Z,13.32
2022-10-23T23:22:07.070Z,12.73
2022-10-23T23:25:10.239Z,12.88
2022-10-23T23:28:17.254Z,12.50
2022-10-23T23:31:25.026Z,12.33
2022-10-23T23:34:28.105Z,11.88
2022-10-23T23:37:30.986Z,12.25
2022-10-23T23:40:33.891Z,12.93
2022-10-23T23:43:36.771Z,11.67
2022-10-23T23:46:39.659Z,12.60
2022-10-23T23:49:42.522Z,11.68
2022-10-23T23:52:45.420Z,11.25
2022-10-23T23:55:48.314Z,11.55
2022-10-23T23:58:51.206Z,12.70
